Time;durP1;ratioP1;P1;durP2;ratioP2;P2;SDS_P1;SDS_P2;PMS_P1;PMS_P2;Temp;Humidity;BMP_temperature;BMP_pressure;BME280_temperature;BME280_humidity;BME280_pressure;Samples;Min_cycle;Max_cycle;Signal;HPM_P1;HPM_P2
2021/11/18 00:03:41;;;;;;;24.77;8.27;;;;;;;;;;10525047;28;20039;-76
2021/11/18 00:08:41;;;;;;;46.77;10.27;;;;;;;;;;10530041;28;20068;-76
2021/11/18 00:13:43;;;;;;;23.10;7.55;;;;;;;;;;10528728;28;20249;-76
2021/11/18 00:18:44;;;;;;;32.28;7.28;;;;;;;;;;10522897;28;20099;-76
2021/11/18 00:23:45;;;;;;;25.80;6.07;;;;;;;;;;10540530;28;20110;-76
2021/11/18 00:28:46;;;;;;;15.18;7.38;;;;;;;;;;10521431;28;20085;-76
2021/11/18 00:33:46;;;;;;;20.27;6.35;;;;;;;;;;10540359;28;20020;-76
2021/11/18 00:38:46;;;;;;;22.67;6.53;;;;;;;;;;10540132;28;20427;-76
2021/11/18 00:43:47;;;;;;;25.63;7.15;;;;;;;;;;10539432;28;20261;-76
2021/11/18 00:48:47;;;;;;;22.13;8.02;;;;;;;;;;10521765;28;20023;-75
2021/11/18 00:53:48;;;;;;;18.98;6.53;;;;;;;;;;10539497;28;20498;-76
2021/11/18 00:58:49;;;;;;;24.10;8.27;;;;;;;;;;10520986;28;20753;-76
2021/11/18 01:03:49;;;;;;;19.70;8.13;;;;;;;;;;10521183;28;20039;-76
2021/11/18 01:08:49;;;;;;;17.70;6.65;;;;;;;;;;10522450;28;20051;-77
2021/11/18 01:13:50;;;;;;;27.77;7.50;;;;;;;;;;10539251;28;20032;-76
2021/11/18 01:18:50;;;;;;;19.85;7.75;;;;;;;;;;10520987;28;20392;-76
2021/11/18 01:23:50;;;;;;;10.25;5.55;;;;;;;;;;10539335;28;20036;-76
2021/11/18 01:28:51;;;;;;;38.83;8.00;;;;;;;;;;10503544;28;20185;-76
2021/11/18 01:33:51;;;;;;;14.27;6.13;;;;;;;;;;10521356;28;20024;-76
2021/11/18 01:38:51;;;;;;;31.33;7.78;;;;;;;;;;10538536;28;20268;-76
2021/11/18 01:43:53;;;;;;;22.52;7.40;;;;;;;;;;10520731;28;20169;-76
2021/11/18 01:48:53;;;;;;;42.17;6.75;;;;;;;;;;10520514;28;20024;-76
2021/11/18 01:53:53;;;;;;;23.13;7.00;;;;;;;;;;10522297;28;20381;-76
2021/11/18 01:58:55;;;;;;;32.58;7.82;;;;;;;;;;10545962;28;20120;-76
2021/11/18 02:03:55;;;;;;;33.13;6.70;;;;;;;;;;10527905;28;20028;-76
2021/11/18 02:08:55;;;;;;;36.00;7.82;;;;;;;;;;10545987;28;20064;-76
2021/11/18 02:13:56;;;;;;;16.20;6.70;;;;;;;;;;10510890;28;20016;-76
2021/11/18 02:18:56;;;;;;;26.52;7.22;;;;;;;;;;10527509;28;20026;-76
2021/11/18 02:23:57;;;;;;;22.33;4.82;;;;;;;;;;10545817;28;20039;-76
2021/11/18 02:28:58;;;;;;;26.13;6.30;;;;;;;;;;10545289;28;20024;-77
2021/11/18 02:33:59;;;;;;;23.17;7.10;;;;;;;;;;10527172;28;20120;-76
2021/11/18 02:38:59;;;;;;;26.45;8.45;;;;;;;;;;10528315;28;20031;-76
2021/11/18 02:43:59;;;;;;;26.08;6.78;;;;;;;;;;10558196;28;20468;-77
2021/11/18 02:48:59;;;;;;;11.15;6.05;;;;;;;;;;10550567;28;20380;-76
2021/11/18 02:54:00;;;;;;;38.78;8.25;;;;;;;;;;10544053;28;20038;-76
2021/11/18 02:59:00;;;;;;;28.50;7.00;;;;;;;;;;10525427;28;20433;-76
2021/11/18 03:04:00;;;;;;;21.60;7.93;;;;;;;;;;10543496;28;20097;-76
2021/11/18 03:09:01;;;;;;;34.55;7.35;;;;;;;;;;10524786;28;20047;-76
2021/11/18 03:14:01;;;;;;;15.25;5.63;;;;;;;;;;10525283;28;20084;-76
2021/11/18 03:19:01;;;;;;;20.20;6.60;;;;;;;;;;10542826;28;20020;-76
2021/11/18 03:24:01;;;;;;;29.55;6.75;;;;;;;;;;10542768;28;20299;-76
2021/11/18 03:29:02;;;;;;;18.33;5.38;;;;;;;;;;10507350;28;20024;-75
2021/11/18 03:34:07;;;;;;;16.20;4.82;;;;;;;;;;10543639;28;20031;-76
2021/11/18 03:39:08;;;;;;;27.73;5.68;;;;;;;;;;10542461;28;20153;-76
2021/11/18 03:44:09;;;;;;;33.63;6.80;;;;;;;;;;10523730;28;20145;-76
2021/11/18 03:49:09;;;;;;;21.42;5.82;;;;;;;;;;10523636;28;20469;-76
2021/11/18 03:54:10;;;;;;;26.42;7.43;;;;;;;;;;10523561;28;20035;-75
2021/11/18 03:59:14;;;;;;;20.80;6.25;;;;;;;;;;10522597;28;20032;-76
2021/11/18 04:04:16;;;;;;;15.80;6.68;;;;;;;;;;10523076;28;20039;-76
2021/11/18 04:09:16;;;;;;;12.80;4.75;;;;;;;;;;10541218;28;20507;-76
2021/11/18 04:14:16;;;;;;;20.25;5.72;;;;;;;;;;10541033;28;20028;-76
2021/11/18 04:19:16;;;;;;;25.40;6.72;;;;;;;;;;10539752;28;20032;-76
2021/11/18 04:24:18;;;;;;;20.10;5.75;;;;;;;;;;10540483;28;20455;-76
2021/11/18 04:29:20;;;;;;;16.13;5.93;;;;;;;;;;10521742;28;20148;-76
2021/11/18 04:34:20;;;;;;;18.30;6.97;;;;;;;;;;10540015;28;20445;-76
2021/11/18 04:39:21;;;;;;;45.20;7.57;;;;;;;;;;10540280;28;20028;-76
2021/11/18 04:44:21;;;;;;;20.75;5.80;;;;;;;;;;10522344;28;20310;-76
2021/11/18 04:49:21;;;;;;;32.65;7.95;;;;;;;;;;10504721;28;20024;-76
2021/11/18 04:54:21;;;;;;;18.63;6.13;;;;;;;;;;10521470;28;20142;-76
2021/11/18 04:59:22;;;;;;;20.63;7.75;;;;;;;;;;10538738;28;20032;-76
2021/11/18 05:04:22;;;;;;;13.27;5.88;;;;;;;;;;10521384;28;20032;-76
2021/11/18 05:09:22;;;;;;;28.50;6.60;;;;;;;;;;10539193;28;20051;-76
2021/11/18 05:14:22;;;;;;;39.95;7.18;;;;;;;;;;10543188;28;20032;-76
2021/11/18 05:19:25;;;;;;;32.10;7.32;;;;;;;;;;10552062;28;20119;-76
2021/11/18 05:24:25;;;;;;;16.52;6.22;;;;;;;;;;10524568;28;20032;-76
2021/11/18 05:29:26;;;;;;;19.95;6.15;;;;;;;;;;10542927;28;20035;-80
2021/11/18 05:34:26;;;;;;;23.95;6.65;;;;;;;;;;10463103;28;20048;-80
2021/11/18 05:39:26;;;;;;;13.38;5.20;;;;;;;;;;10546114;28;20032;-80
2021/11/18 05:44:26;;;;;;;36.65;9.85;;;;;;;;;;10547411;28;20373;-79
2021/11/18 05:49:26;;;;;;;37.25;8.20;;;;;;;;;;10528993;28;20024;-77
2021/11/18 05:54:27;;;;;;;26.55;4.75;;;;;;;;;;10528829;28;20028;-75
2021/11/18 05:59:27;;;;;;;23.17;8.80;;;;;;;;;;10502301;28;20327;-75
2021/11/18 06:04:27;;;;;;;15.57;5.57;;;;;;;;;;10544476;28;20124;-75
2021/11/18 06:09:27;;;;;;;23.85;7.93;;;;;;;;;;10535601;28;20090;-74
2021/11/18 06:14:29;;;;;;;14.73;7.30;;;;;;;;;;10545550;28;20567;-76
2021/11/18 06:19:29;;;;;;;17.67;6.65;;;;;;;;;;10545397;28;20100;-77
2021/11/18 06:24:29;;;;;;;41.87;8.87;;;;;;;;;;10527287;28;20055;-77
2021/11/18 06:29:30;;;;;;;29.50;7.78;;;;;;;;;;10545028;28;20292;-77
2021/11/18 06:34:30;;;;;;;33.00;8.18;;;;;;;;;;10510176;28;20020;-76
2021/11/18 06:39:32;;;;;;;24.47;6.33;;;;;;;;;;10525360;28;20035;-76
2021/11/18 06:44:32;;;;;;;24.33;6.53;;;;;;;;;;10544492;28;20272;-76
2021/11/18 06:49:32;;;;;;;12.50;6.72;;;;;;;;;;10526346;28;20026;-76
2021/11/18 06:54:33;;;;;;;21.45;8.27;;;;;;;;;;10544112;28;20461;-77
2021/11/18 06:59:33;;;;;;;29.85;9.25;;;;;;;;;;10525566;28;20392;-77
2021/11/18 07:04:33;;;;;;;29.23;7.37;;;;;;;;;;10543579;28;20036;-77
2021/11/18 07:09:37;;;;;;;20.67;8.43;;;;;;;;;;10543774;28;20296;-76
2021/11/18 07:14:37;;;;;;;19.52;6.35;;;;;;;;;;10542951;28;20020;-77
2021/11/18 07:19:38;;;;;;;22.83;9.05;;;;;;;;;;10542686;28;20027;-77
2021/11/18 07:24:38;;;;;;;11.70;6.82;;;;;;;;;;10524801;28;20110;-76
2021/11/18 07:29:38;;;;;;;24.45;7.90;;;;;;;;;;10542066;28;20030;-77
2021/11/18 07:34:38;;;;;;;10.82;5.45;;;;;;;;;;10525081;28;20032;-77
2021/11/18 07:39:38;;;;;;;18.13;7.85;;;;;;;;;;10541903;28;20024;-76
2021/11/18 07:44:39;;;;;;;21.80;8.02;;;;;;;;;;10523934;28;20034;-76
2021/11/18 07:49:39;;;;;;;25.88;8.90;;;;;;;;;;10544006;28;20380;-76
2021/11/18 07:54:39;;;;;;;20.50;8.32;;;;;;;;;;10548163;28;20108;-76
2021/11/18 07:59:40;;;;;;;25.15;8.13;;;;;;;;;;10542077;28;20491;-77
2021/11/18 08:04:40;;;;;;;14.90;5.72;;;;;;;;;;10541275;28;20039;-76
2021/11/18 08:09:40;;;;;;;44.88;10.52;;;;;;;;;;10523002;28;20063;-76
2021/11/18 08:14:40;;;;;;;16.58;6.50;;;;;;;;;;10541023;28;20043;-76
2021/11/18 08:19:41;;;;;;;38.13;9.20;;;;;;;;;;10540573;28;20075;-76
2021/11/18 08:24:43;;;;;;;15.48;7.05;;;;;;;;;;10540649;28;20538;-76
2021/11/18 08:29:43;;;;;;;10.88;7.50;;;;;;;;;;10539420;28;20027;-76
2021/11/18 08:34:44;;;;;;;23.10;7.60;;;;;;;;;;10521975;28;20453;-76
2021/11/18 08:39:44;;;;;;;27.63;8.32;;;;;;;;;;10539586;28;20289;-77
2021/11/18 08:44:45;;;;;;;17.52;6.10;;;;;;;;;;10521656;28;20039;-76
2021/11/18 08:49:45;;;;;;;38.47;9.38;;;;;;;;;;10539430;28;20544;-76
2021/11/18 08:54:46;;;;;;;23.08;6.78;;;;;;;;;;10521466;28;20032;-76
2021/11/18 08:59:47;;;;;;;46.17;8.40;;;;;;;;;;10539194;28;20032;-76
2021/11/18 09:04:47;;;;;;;13.10;6.55;;;;;;;;;;10538894;28;20465;-76
2021/11/18 09:09:48;;;;;;;25.75;8.30;;;;;;;;;;10539692;28;20048;-76
2021/11/18 09:14:49;;;;;;;42.33;7.93;;;;;;;;;;10539454;28;20107;-76
2021/11/18 09:19:49;;;;;;;11.05;5.25;;;;;;;;;;10521739;28;20115;-76
2021/11/18 09:24:52;;;;;;;23.08;7.43;;;;;;;;;;10539150;28;20028;-76
2021/11/18 09:29:52;;;;;;;27.13;6.88;;;;;;;;;;10538705;28;20030;-76
2021/11/18 09:34:52;;;;;;;14.75;7.55;;;;;;;;;;10538904;28;20120;-77
2021/11/18 09:39:52;;;;;;;26.20;6.15;;;;;;;;;;10538861;28;20495;-77
2021/11/18 09:45:11;;;;;;;29.38;8.38;;;;;;;;;;10538636;28;20061;-76
2021/11/18 09:50:30;;;;;;;14.63;7.03;;;;;;;;;;10538548;28;20025;-77
2021/11/18 09:55:48;;;;;;;18.13;6.15;;;;;;;;;;10538105;28;20349;-76
2021/11/18 10:01:07;;;;;;;16.50;6.13;;;;;;;;;;10503350;28;20388;-76
2021/11/18 10:06:16;;;;;;;19.45;5.03;;;;;;;;;;10538051;28;20564;-76
2021/11/18 10:11:22;;;;;;;11.15;5.72;;;;;;;;;;10537984;28;20492;-76
2021/11/18 10:16:23;;;;;;;16.45;5.00;;;;;;;;;;10541770;28;20027;-77
2021/11/18 10:21:28;;;;;;;18.00;5.45;;;;;;;;;;10527651;28;20032;-77
2021/11/18 10:26:29;;;;;;;11.30;4.65;;;;;;;;;;10531142;28;20385;-76
2021/11/18 10:31:29;;;;;;;16.92;7.30;;;;;;;;;;10548928;28;20024;-76
2021/11/18 10:36:48;;;;;;;22.60;5.88;;;;;;;;;;10544861;28;20418;-77
2021/11/18 10:41:56;;;;;;;21.25;6.15;;;;;;;;;;10544576;28;20056;-76
2021/11/18 10:46:58;;;;;;;13.00;5.95;;;;;;;;;;10544854;28;20032;-77
2021/11/18 10:52:00;;;;;;;11.15;5.60;;;;;;;;;;10547193;28;20024;-76
2021/11/18 10:57:01;;;;;;;13.20;5.38;;;;;;;;;;10543632;28;20487;-76
2021/11/18 11:02:01;;;;;;;26.13;5.47;;;;;;;;;;10543679;28;20032;-77
2021/11/18 11:07:02;;;;;;;8.98;5.47;;;;;;;;;;10526700;28;20138;-77
2021/11/18 11:12:21;;;;;;;21.90;5.75;;;;;;;;;;10508663;28;20035;-76
2021/11/18 11:17:27;;;;;;;16.80;5.20;;;;;;;;;;10525121;28;20119;-76
2021/11/18 11:22:33;;;;;;;11.60;5.22;;;;;;;;;;10525402;28;20488;-76
2021/11/18 11:27:52;;;;;;;9.70;5.00;;;;;;;;;;10507819;28;20066;-76
2021/11/18 11:32:53;;;;;;;19.20;4.95;;;;;;;;;;10543217;28;20012;-77
2021/11/18 11:37:54;;;;;;;11.57;6.05;;;;;;;;;;10524365;28;20468;-76
2021/11/18 11:42:55;;;;;;;7.10;5.38;;;;;;;;;;10542448;28;20028;-76
2021/11/18 11:48:02;;;;;;;21.55;5.07;;;;;;;;;;10542273;28;20031;-76
2021/11/18 11:53:17;;;;;;;12.02;5.57;;;;;;;;;;10525328;28;20024;-76
2021/11/18 11:58:24;;;;;;;20.08;4.20;;;;;;;;;;10541094;28;20024;-76
2021/11/18 12:03:30;;;;;;;17.83;5.35;;;;;;;;;;10523941;28;20028;-76
2021/11/18 12:08:34;;;;;;;12.82;4.80;;;;;;;;;;10541070;28;20492;-76
2021/11/18 12:13:49;;;;;;;17.27;4.75;;;;;;;;;;10540803;28;20047;-76
2021/11/18 12:18:55;;;;;;;17.35;4.90;;;;;;;;;;10522451;28;20476;-76
2021/11/18 12:24:05;;;;;;;19.40;5.38;;;;;;;;;;10540643;28;20396;-76
2021/11/18 12:29:23;;;;;;;19.23;4.05;;;;;;;;;;10522225;28;20028;-76
2021/11/18 12:34:23;;;;;;;;;;;;;;;;;;10540891;28;20097;-76
2021/11/18 12:39:36;;;;;;;8.20;3.65;;;;;;;;;;10521620;28;19961;-75
2021/11/18 12:44:39;;;;;;;14.38;4.95;;;;;;;;;;10540616;28;20465;-75
2021/11/18 12:49:51;;;;;;;13.85;4.45;;;;;;;;;;10522157;28;20444;-75
2021/11/18 12:55:04;;;;;;;8.48;4.63;;;;;;;;;;10539955;28;20032;-75
2021/11/18 13:00:13;;;;;;;10.40;4.95;;;;;;;;;;10540668;28;20032;-75
2021/11/18 13:05:13;;;;;;;21.13;5.43;;;;;;;;;;10540605;28;20035;-75
2021/11/18 13:10:19;;;;;;;17.38;4.00;;;;;;;;;;10539675;28;20030;-75
2021/11/18 13:15:22;;;;;;;25.90;5.85;;;;;;;;;;10521210;28;20044;-75
2021/11/18 13:20:40;;;;;;;26.15;7.10;;;;;;;;;;10504328;28;20110;-75
2021/11/18 13:25:45;;;;;;;9.80;3.83;;;;;;;;;;10538870;28;20017;-75
2021/11/18 13:30:52;;;;;;;12.32;4.65;;;;;;;;;;10520491;28;20054;-75
2021/11/18 13:36:00;;;;;;;16.00;4.88;;;;;;;;;;10538687;28;20063;-75
2021/11/18 13:41:00;;;;;;;12.60;4.50;;;;;;;;;;10538520;28;20031;-75
2021/11/18 13:46:06;;;;;;;12.30;4.45;;;;;;;;;;10538319;28;20024;-75
2021/11/18 13:51:06;;;;;;;22.93;4.03;;;;;;;;;;10543291;28;20031;-75
2021/11/18 13:56:08;;;;;;;13.30;5.30;;;;;;;;;;10546095;28;20020;-74
2021/11/18 14:01:10;;;;;;;14.25;4.28;;;;;;;;;;10546925;28;20110;-74
2021/11/18 14:06:15;;;;;;;13.18;5.07;;;;;;;;;;10527732;28;20519;-75
2021/11/18 14:11:17;;;;;;;13.25;5.00;;;;;;;;;;10528537;28;20051;-75
2021/11/18 14:16:36;;;;;;;14.77;3.65;;;;;;;;;;10546014;28;20031;-74
2021/11/18 14:21:43;;;;;;;16.70;5.20;;;;;;;;;;10545292;28;20031;-75
2021/11/18 14:26:50;;;;;;;9.93;3.95;;;;;;;;;;10526661;28;20024;-75
2021/11/18 14:31:50;;;;;;;17.20;4.97;;;;;;;;;;10545109;28;20024;-74
2021/11/18 14:36:51;;;;;;;16.02;5.40;;;;;;;;;;10544653;28;20625;-74
2021/11/18 14:41:53;;;;;;;14.88;4.35;;;;;;;;;;10527412;28;20453;-74
2021/11/18 14:47:01;;;;;;;25.90;4.95;;;;;;;;;;10526404;28;20020;-74
2021/11/18 14:52:13;;;;;;;7.60;3.42;;;;;;;;;;10544044;28;20028;-75
2021/11/18 14:57:26;;;;;;;17.35;4.63;;;;;;;;;;10543560;28;20031;-74
2021/11/18 15:02:26;;;;;;;14.85;4.35;;;;;;;;;;10543172;28;20483;-74
2021/11/18 15:07:27;;;;;;;19.02;4.60;;;;;;;;;;10543618;28;20135;-74
2021/11/18 15:12:28;;;;;;;15.02;4.55;;;;;;;;;;10525569;28;20028;-74
2021/11/18 15:17:28;;;;;;;19.95;4.75;;;;;;;;;;10508536;28;20024;-74
2021/11/18 15:22:29;;;;;;;6.60;5.18;;;;;;;;;;10543046;28;20419;-75
2021/11/18 15:27:29;;;;;;;22.88;5.32;;;;;;;;;;10524877;28;20062;-74
2021/11/18 15:32:30;;;;;;;17.08;6.25;;;;;;;;;;10526170;28;20120;-74
2021/11/18 15:37:30;;;;;;;37.33;6.38;;;;;;;;;;10525418;28;20032;-74
2021/11/18 15:42:30;;;;;;;22.02;5.05;;;;;;;;;;10542418;28;20036;-74
2021/11/18 15:47:30;;;;;;;20.55;6.05;;;;;;;;;;10542199;28;20027;-74
2021/11/18 15:52:31;;;;;;;23.55;5.32;;;;;;;;;;10541837;28;20028;-74
2021/11/18 15:57:32;;;;;;;32.22;5.03;;;;;;;;;;10506247;28;20552;-74
2021/11/18 16:02:32;;;;;;;23.00;6.68;;;;;;;;;;10541883;28;20107;-74
2021/11/18 16:07:32;;;;;;;24.88;5.97;;;;;;;;;;10541287;28;20408;-74
2021/11/18 16:12:34;;;;;;;14.93;4.70;;;;;;;;;;10539903;28;20027;-74
2021/11/18 16:17:35;;;;;;;14.65;5.90;;;;;;;;;;10540755;28;20028;-75
2021/11/18 16:22:36;;;;;;;12.63;5.22;;;;;;;;;;10541009;28;20032;-74
2021/11/18 16:27:38;;;;;;;30.30;6.63;;;;;;;;;;10540082;28;20023;-74
2021/11/18 16:32:38;;;;;;;7.00;4.45;;;;;;;;;;10540401;28;20059;-74
2021/11/18 16:37:39;;;;;;;12.10;4.03;;;;;;;;;;10539779;28;20441;-75
2021/11/18 16:42:39;;;;;;;18.92;5.43;;;;;;;;;;10522039;28;20035;-74
2021/11/18 16:47:39;;;;;;;20.63;5.28;;;;;;;;;;10539943;28;20420;-75
2021/11/18 16:52:40;;;;;;;19.55;6.75;;;;;;;;;;10539501;28;20039;-74
2021/11/18 16:57:41;;;;;;;28.60;6.20;;;;;;;;;;10539039;28;20058;-74
2021/11/18 17:02:41;;;;;;;51.90;7.55;;;;;;;;;;10539318;28;20058;-74
2021/11/18 17:07:41;;;;;;;15.15;5.80;;;;;;;;;;10538835;28;20523;-75
2021/11/18 17:12:42;;;;;;;16.13;5.85;;;;;;;;;;10521236;28;20024;-74
2021/11/18 17:17:42;;;;;;;21.15;6.07;;;;;;;;;;10539075;28;20028;-75
2021/11/18 17:22:43;;;;;;;11.43;5.60;;;;;;;;;;10521205;28;20039;-75
2021/11/18 17:27:43;;;;;;;10.60;5.73;;;;;;;;;;10546607;28;20453;-74
2021/11/18 17:32:44;;;;;;;15.82;6.22;;;;;;;;;;10547828;28;20278;-74
2021/11/18 17:37:44;;;;;;;18.20;5.97;;;;;;;;;;10547195;28;20032;-74
2021/11/18 17:42:45;;;;;;;18.80;5.72;;;;;;;;;;10547077;28;20039;-75
2021/11/18 17:47:45;;;;;;;9.00;5.28;;;;;;;;;;10547043;28;20435;-74
2021/11/18 17:52:46;;;;;;;12.48;5.80;;;;;;;;;;10528465;28;20020;-74
2021/11/18 17:57:46;;;;;;;11.07;5.50;;;;;;;;;;10549315;28;20032;-74
2021/11/18 18:02:46;;;;;;;25.48;5.60;;;;;;;;;;10517025;28;20392;-74
2021/11/18 18:07:47;;;;;;;15.80;5.68;;;;;;;;;;10548317;28;20157;-74
2021/11/18 18:12:47;;;;;;;16.38;6.10;;;;;;;;;;10546539;28;20020;-74
2021/11/18 18:17:47;;;;;;;18.27;6.47;;;;;;;;;;10545670;28;20396;-74
2021/11/18 18:22:48;;;;;;;19.38;6.90;;;;;;;;;;10546278;28;20046;-74
2021/11/18 18:27:48;;;;;;;19.55;6.40;;;;;;;;;;10545755;28;20027;-74
2021/11/18 18:32:48;;;;;;;11.57;5.28;;;;;;;;;;10526940;28;20035;-74
2021/11/18 18:37:49;;;;;;;13.68;5.70;;;;;;;;;;10544417;28;20046;-74
2021/11/18 18:42:49;;;;;;;9.98;4.40;;;;;;;;;;10545367;28;20027;-74
2021/11/18 18:47:52;;;;;;;15.43;6.03;;;;;;;;;;10526237;28;20034;-74
2021/11/18 18:52:52;;;;;;;18.63;5.88;;;;;;;;;;10545004;28;20304;-74
2021/11/18 18:57:52;;;;;;;20.73;5.35;;;;;;;;;;10525387;28;20066;-74
2021/11/18 19:02:52;;;;;;;20.52;5.88;;;;;;;;;;10525806;28;20036;-74
2021/11/18 19:07:53;;;;;;;26.83;9.38;;;;;;;;;;10525550;28;20428;-74
2021/11/18 19:12:53;;;;;;;17.52;6.35;;;;;;;;;;10526273;28;20031;-74
2021/11/18 19:17:53;;;;;;;13.85;6.43;;;;;;;;;;10543506;28;20032;-74
2021/11/18 19:22:54;;;;;;;11.85;6.68;;;;;;;;;;10543361;28;20038;-74
2021/11/18 19:28:07;;;;;;;13.45;5.18;;;;;;;;;;10542948;28;20377;-74
2021/11/18 19:33:11;;;;;;;27.38;8.50;;;;;;;;;;10526030;28;20476;-74
2021/11/18 19:38:13;;;;;;;11.57;5.00;;;;;;;;;;10524583;28;20073;-74
2021/11/18 19:43:13;;;;;;;20.85;6.88;;;;;;;;;;10542198;28;20158;-74
2021/11/18 19:48:15;;;;;;;13.60;5.28;;;;;;;;;;10542068;28;20158;-73
2021/11/18 19:53:17;;;;;;;15.50;7.13;;;;;;;;;;10503920;28;20036;-73
2021/11/18 19:58:17;;;;;;;16.17;5.88;;;;;;;;;;10539452;28;20089;-73
2021/11/18 20:03:18;;;;;;;13.45;6.65;;;;;;;;;;10522996;28;20028;-73
2021/11/18 20:08:18;;;;;;;26.58;7.20;;;;;;;;;;10522776;28;20496;-73
2021/11/18 20:13:19;;;;;;;15.02;5.82;;;;;;;;;;10540961;28;20024;-73
2021/11/18 20:18:20;;;;;;;33.80;7.47;;;;;;;;;;10540589;28;20071;-74
2021/11/18 20:23:20;;;;;;;24.98;7.63;;;;;;;;;;10522641;28;20048;-72
2021/11/18 20:28:20;;;;;;;10.40;5.28;;;;;;;;;;10539861;28;20500;-72
2021/11/18 20:33:21;;;;;;;29.05;6.65;;;;;;;;;;10540587;28;20032;-73
2021/11/18 20:38:21;;;;;;;9.70;7.45;;;;;;;;;;10522106;28;20392;-72
2021/11/18 20:43:23;;;;;;;14.40;6.82;;;;;;;;;;10540220;28;20024;-73
2021/11/18 20:48:24;;;;;;;8.43;5.63;;;;;;;;;;10522025;28;20469;-72
2021/11/18 20:53:24;;;;;;;10.35;6.05;;;;;;;;;;10521400;28;20038;-73
2021/11/18 20:58:25;;;;;;;22.67;6.10;;;;;;;;;;10538564;28;20035;-72
2021/11/18 21:03:25;;;;;;;11.85;5.65;;;;;;;;;;10521050;28;20034;-73
2021/11/18 21:08:26;;;;;;;7.03;4.32;;;;;;;;;;10538900;28;20139;-73
2021/11/18 21:13:26;;;;;;;6.53;3.97;;;;;;;;;;10520773;28;20233;-73
2021/11/18 21:18:27;;;;;;;11.20;4.73;;;;;;;;;;10538287;28;20190;-73
2021/11/18 21:23:27;;;;;;;15.52;4.40;;;;;;;;;;10494176;28;20266;-73
2021/11/18 21:28:28;;;;;;;16.50;5.15;;;;;;;;;;10496698;28;20090;-74
2021/11/18 21:33:28;;;;;;;14.32;5.60;;;;;;;;;;10462780;28;20052;-74
2021/11/18 21:38:29;;;;;;;11.48;4.53;;;;;;;;;;10496833;28;20056;-73
2021/11/18 21:43:29;;;;;;;5.95;4.55;;;;;;;;;;10479159;28;20059;-74
2021/11/18 21:48:36;;;;;;;19.40;6.60;;;;;;;;;;10496651;28;20029;-74
2021/11/18 21:53:37;;;;;;;6.75;4.28;;;;;;;;;;10497514;28;20038;-74
2021/11/18 21:58:38;;;;;;;6.60;4.97;;;;;;;;;;10496331;28;20120;-74
2021/11/18 22:03:38;;;;;;;18.63;6.10;;;;;;;;;;10496339;28;20107;-74
2021/11/18 22:08:38;;;;;;;7.28;5.05;;;;;;;;;;10478583;28;20143;-74
2021/11/18 22:13:39;;;;;;;15.38;6.60;;;;;;;;;;10503202;28;20493;-74
2021/11/18 22:18:39;;;;;;;10.38;4.47;;;;;;;;;;10469127;28;20032;-74
2021/11/18 22:23:39;;;;;;;7.80;4.38;;;;;;;;;;10485535;28;20504;-74
2021/11/18 22:28:40;;;;;;;4.35;4.03;;;;;;;;;;10502817;28;20116;-74
2021/11/18 22:33:40;;;;;;;11.98;5.13;;;;;;;;;;10485117;28;20352;-74
2021/11/18 22:38:41;;;;;;;8.00;4.90;;;;;;;;;;10502761;28;20036;-74
2021/11/18 22:43:41;;;;;;;5.95;4.47;;;;;;;;;;10502815;28;20090;-74
2021/11/18 22:48:41;;;;;;;6.70;5.05;;;;;;;;;;10503089;28;20108;-74
2021/11/18 22:53:42;;;;;;;11.48;5.93;;;;;;;;;;10501914;28;20134;-74
2021/11/18 22:58:43;;;;;;;12.75;6.53;;;;;;;;;;10501786;28;20477;-74
2021/11/18 23:03:43;;;;;;;9.73;5.38;;;;;;;;;;10484263;28;20130;-74
2021/11/18 23:08:43;;;;;;;8.90;6.65;;;;;;;;;;10502060;28;20497;-73
2021/11/18 23:13:44;;;;;;;16.50;6.95;;;;;;;;;;10486194;28;20028;-74
2021/11/18 23:18:44;;;;;;;9.02;6.95;;;;;;;;;;10485918;28;20115;-74
2021/11/18 23:23:45;;;;;;;8.98;5.95;;;;;;;;;;10466154;28;20115;-74
2021/11/18 23:28:47;;;;;;;17.95;5.85;;;;;;;;;;10482456;28;20089;-74
2021/11/18 23:33:47;;;;;;;15.95;6.50;;;;;;;;;;10483090;28;20111;-74
2021/11/18 23:38:47;;;;;;;7.95;6.13;;;;;;;;;;10466001;28;20453;-74
2021/11/18 23:43:47;;;;;;;12.15;5.18;;;;;;;;;;10482413;28;20071;-75
2021/11/18 23:48:47;;;;;;;17.73;8.43;;;;;;;;;;10482380;28;20523;-74
2021/11/18 23:53:48;;;;;;;15.73;7.20;;;;;;;;;;10482044;28;20089;-74
2021/11/18 23:58:48;;;;;;;8.32;6.47;;;;;;;;;;10481485;28;20544;-74
